sensor_id;sensor_type;location;lat;lon;timestamp;temperature;humidity
69776;DHT22;57049;51.450;-2.516;2023-06-10T00:00:20;15.76;86.42
69776;DHT22;57049;51.450;-2.516;2023-06-10T00:02:45;15.75;86.39
69776;DHT22;57049;51.450;-2.516;2023-06-10T00:05:11;15.70;86.57
69776;DHT22;57049;51.450;-2.516;2023-06-10T00:07:36;15.56;86.86
69776;DHT22;57049;51.450;-2.516;2023-06-10T00:10:04;15.61;86.67
69776;DHT22;57049;51.450;-2.516;2023-06-10T00:12:31;15.42;87.28
69776;DHT22;57049;51.450;-2.516;2023-06-10T00:15:06;15.52;86.96
69776;DHT22;57049;51.450;-2.516;2023-06-10T00:17:31;15.52;86.80
69776;DHT22;57049;51.450;-2.516;2023-06-10T00:19:58;15.46;86.75
69776;DHT22;57049;51.450;-2.516;2023-06-10T00:22:23;15.46;86.80
69776;DHT22;57049;51.450;-2.516;2023-06-10T00:24:54;15.41;87.02
69776;DHT22;57049;51.450;-2.516;2023-06-10T00:27:20;15.36;87.08
69776;DHT22;57049;51.450;-2.516;2023-06-10T00:29:46;15.36;87.00
69776;DHT22;57049;51.450;-2.516;2023-06-10T00:32:12;15.27;87.40
69776;DHT22;57049;51.450;-2.516;2023-06-10T00:34:37;15.27;87.24
69776;DHT22;57049;51.450;-2.516;2023-06-10T00:37:03;15.17;87.53
69776;DHT22;57049;51.450;-2.516;2023-06-10T00:39:28;15.11;87.56
69776;DHT22;57049;51.450;-2.516;2023-06-10T00:41:54;14.90;88.03
69776;DHT22;57049;51.450;-2.516;2023-06-10T00:44:19;14.87;88.38
69776;DHT22;57049;51.450;-2.516;2023-06-10T00:46:45;14.77;88.52
69776;DHT22;57049;51.450;-2.516;2023-06-10T00:49:11;14.80;88.65
69776;DHT22;57049;51.450;-2.516;2023-06-10T00:51:36;14.72;88.88
69776;DHT22;57049;51.450;-2.516;2023-06-10T00:54:02;14.70;88.90
69776;DHT22;57049;51.450;-2.516;2023-06-10T00:56:28;14.62;89.16
69776;DHT22;57049;51.450;-2.516;2023-06-10T00:58:54;14.55;89.32
69776;DHT22;57049;51.450;-2.516;2023-06-10T01:01:20;14.55;89.34
69776;DHT22;57049;51.450;-2.516;2023-06-10T01:03:46;14.53;89.39
69776;DHT22;57049;51.450;-2.516;2023-06-10T01:11:50;14.56;89.33
69776;DHT22;57049;51.450;-2.516;2023-06-10T01:14:17;14.44;89.51
69776;DHT22;57049;51.450;-2.516;2023-06-10T01:16:43;14.37;89.79
69776;DHT22;57049;51.450;-2.516;2023-06-10T01:19:11;14.37;89.71
69776;DHT22;57049;51.450;-2.516;2023-06-10T01:21:38;14.32;89.83
69776;DHT22;57049;51.450;-2.516;2023-06-10T01:24:05;14.33;89.81
69776;DHT22;57049;51.450;-2.516;2023-06-10T01:26:34;14.32;89.86
69776;DHT22;57049;51.450;-2.516;2023-06-10T01:29:11;14.30;89.87
69776;DHT22;57049;51.450;-2.516;2023-06-10T01:34:31;14.18;90.17
69776;DHT22;57049;51.450;-2.516;2023-06-10T01:36:58;14.11;90.19
69776;DHT22;57049;51.450;-2.516;2023-06-10T01:39:24;14.04;90.39
69776;DHT22;57049;51.450;-2.516;2023-06-10T01:41:51;13.95;90.59
69776;DHT22;57049;51.450;-2.516;2023-06-10T01:44:21;13.89;90.74
69776;DHT22;57049;51.450;-2.516;2023-06-10T01:46:47;13.88;90.73
69776;DHT22;57049;51.450;-2.516;2023-06-10T01:49:12;13.85;90.80
69776;DHT22;57049;51.450;-2.516;2023-06-10T01:51:38;13.89;90.68
69776;DHT22;57049;51.450;-2.516;2023-06-10T01:54:04;13.81;90.92
69776;DHT22;57049;51.450;-2.516;2023-06-10T01:56:30;13.81;91.00
69776;DHT22;57049;51.450;-2.516;2023-06-10T01:58:56;13.89;90.77
69776;DHT22;57049;51.450;-2.516;2023-06-10T02:01:25;13.83;90.93
69776;DHT22;57049;51.450;-2.516;2023-06-10T02:03:51;13.95;90.69
69776;DHT22;57049;51.450;-2.516;2023-06-10T02:06:16;13.86;90.77
69776;DHT22;57049;51.450;-2.516;2023-06-10T02:08:42;13.94;90.77
69776;DHT22;57049;51.450;-2.516;2023-06-10T02:11:07;13.83;90.81
69776;DHT22;57049;51.450;-2.516;2023-06-10T02:13:33;13.88;90.82
69776;DHT22;57049;51.450;-2.516;2023-06-10T02:15:58;13.83;91.01
69776;DHT22;57049;51.450;-2.516;2023-06-10T02:18:25;13.82;91.23
69776;DHT22;57049;51.450;-2.516;2023-06-10T02:20:52;13.78;91.28
69776;DHT22;57049;51.450;-2.516;2023-06-10T02:23:17;13.77;91.43
69776;DHT22;57049;51.450;-2.516;2023-06-10T02:25:43;13.74;91.52
69776;DHT22;57049;51.450;-2.516;2023-06-10T02:28:09;13.82;91.34
69776;DHT22;57049;51.450;-2.516;2023-06-10T02:30:34;13.72;91.56
69776;DHT22;57049;51.450;-2.516;2023-06-10T02:33:00;13.71;91.76
69776;DHT22;57049;51.450;-2.516;2023-06-10T02:35:26;13.71;91.87
69776;DHT22;57049;51.450;-2.516;2023-06-10T02:37:51;13.71;91.85
69776;DHT22;57049;51.450;-2.516;2023-06-10T02:40:17;13.70;92.00
69776;DHT22;57049;51.450;-2.516;2023-06-10T02:42:43;13.68;92.05
69776;DHT22;57049;51.450;-2.516;2023-06-10T02:45:09;13.71;92.04
69776;DHT22;57049;51.450;-2.516;2023-06-10T02:47:34;13.71;92.02
69776;DHT22;57049;51.450;-2.516;2023-06-10T02:50:00;13.77;91.96
69776;DHT22;57049;51.450;-2.516;2023-06-10T02:52:25;13.64;92.24
69776;DHT22;57049;51.450;-2.516;2023-06-10T02:54:51;13.64;92.30
69776;DHT22;57049;51.450;-2.516;2023-06-10T02:57:16;13.70;92.17
69776;DHT22;57049;51.450;-2.516;2023-06-10T02:59:42;13.75;92.07
69776;DHT22;57049;51.450;-2.516;2023-06-10T03:02:07;13.71;92.13
69776;DHT22;57049;51.450;-2.516;2023-06-10T03:04:33;13.67;92.21
69776;DHT22;57049;51.450;-2.516;2023-06-10T03:06:59;13.65;92.33
69776;DHT22;57049;51.450;-2.516;2023-06-10T03:09:29;13.60;92.43
69776;DHT22;57049;51.450;-2.516;2023-06-10T03:11:54;13.64;92.45
69776;DHT22;57049;51.450;-2.516;2023-06-10T03:14:20;13.61;92.56
69776;DHT22;57049;51.450;-2.516;2023-06-10T03:16:46;13.65;92.51
69776;DHT22;57049;51.450;-2.516;2023-06-10T03:19:11;13.70;92.41
69776;DHT22;57049;51.450;-2.516;2023-06-10T03:21:37;13.61;92.61
69776;DHT22;57049;51.450;-2.516;2023-06-10T03:24:04;13.67;92.56
69776;DHT22;57049;51.450;-2.516;2023-06-10T03:26:29;13.68;92.53
69776;DHT22;57049;51.450;-2.516;2023-06-10T03:28:55;13.68;92.42
69776;DHT22;57049;51.450;-2.516;2023-06-10T03:31:20;13.67;92.63
69776;DHT22;57049;51.450;-2.516;2023-06-10T03:33:46;13.74;92.52
69776;DHT22;57049;51.450;-2.516;2023-06-10T03:36:11;13.79;92.31
69776;DHT22;57049;51.450;-2.516;2023-06-10T03:38:37;13.82;92.23
69776;DHT22;57049;51.450;-2.516;2023-06-10T03:41:02;13.81;92.30
69776;DHT22;57049;51.450;-2.516;2023-06-10T03:43:28;13.81;92.33
69776;DHT22;57049;51.450;-2.516;2023-06-10T03:45:53;13.81;92.30
69776;DHT22;57049;51.450;-2.516;2023-06-10T03:48:19;13.79;92.31
69776;DHT22;57049;51.450;-2.516;2023-06-10T03:50:45;13.83;92.36
69776;DHT22;57049;51.450;-2.516;2023-06-10T03:53:12;13.75;92.52
69776;DHT22;57049;51.450;-2.516;2023-06-10T03:55:38;13.72;92.73
69776;DHT22;57049;51.450;-2.516;2023-06-10T03:58:03;13.75;92.64
69776;DHT22;57049;51.450;-2.516;2023-06-10T04:00:29;13.78;92.53
69776;DHT22;57049;51.450;-2.516;2023-06-10T04:02:55;13.75;92.57
69776;DHT22;57049;51.450;-2.516;2023-06-10T04:05:23;13.79;92.48
69776;DHT22;57049;51.450;-2.516;2023-06-10T04:07:49;13.91;92.35
69776;DHT22;57049;51.450;-2.516;2023-06-10T04:10:15;13.91;92.17
69776;DHT22;57049;51.450;-2.516;2023-06-10T04:12:41;14.02;91.91
69776;DHT22;57049;51.450;-2.516;2023-06-10T04:15:07;13.88;92.35
69776;DHT22;57049;51.450;-2.516;2023-06-10T04:17:33;13.97;92.19
69776;DHT22;57049;51.450;-2.516;2023-06-10T04:19:58;13.97;92.01
69776;DHT22;57049;51.450;-2.516;2023-06-10T04:22:24;14.05;91.94
69776;DHT22;57049;51.450;-2.516;2023-06-10T04:24:49;14.04;91.92
69776;DHT22;57049;51.450;-2.516;2023-06-10T04:27:15;14.09;91.74
69776;DHT22;57049;51.450;-2.516;2023-06-10T04:29:40;14.19;91.65
69776;DHT22;57049;51.450;-2.516;2023-06-10T04:32:06;14.19;91.35
69776;DHT22;57049;51.450;-2.516;2023-06-10T04:34:36;14.16;91.31
69776;DHT22;57049;51.450;-2.516;2023-06-10T04:37:01;14.15;91.42
69776;DHT22;57049;51.450;-2.516;2023-06-10T04:39:28;14.13;91.46
69776;DHT22;57049;51.450;-2.516;2023-06-10T04:41:53;14.08;91.52
69776;DHT22;57049;51.450;-2.516;2023-06-10T04:44:18;14.02;91.78
69776;DHT22;57049;51.450;-2.516;2023-06-10T04:46:44;14.06;91.68
69776;DHT22;57049;51.450;-2.516;2023-06-10T04:49:11;14.09;91.49
69776;DHT22;57049;51.450;-2.516;2023-06-10T04:51:39;14.08;91.54
69776;DHT22;57049;51.450;-2.516;2023-06-10T04:54:05;14.05;91.58
69776;DHT22;57049;51.450;-2.516;2023-06-10T04:56:30;13.99;91.72
69776;DHT22;57049;51.450;-2.516;2023-06-10T04:58:57;13.99;91.76
69776;DHT22;57049;51.450;-2.516;2023-06-10T05:01:23;14.08;91.52
69776;DHT22;57049;51.450;-2.516;2023-06-10T05:03:48;14.06;91.39
69776;DHT22;57049;51.450;-2.516;2023-06-10T05:06:14;14.11;91.26
69776;DHT22;57049;51.450;-2.516;2023-06-10T05:08:39;14.12;91.08
69776;DHT22;57049;51.450;-2.516;2023-06-10T05:11:05;14.16;91.01
69776;DHT22;57049;51.450;-2.516;2023-06-10T05:13:31;14.13;90.77
69776;DHT22;57049;51.450;-2.516;2023-06-10T05:15:57;14.11;90.94
69776;DHT22;57049;51.450;-2.516;2023-06-10T05:18:22;14.11;90.98
69776;DHT22;57049;51.450;-2.516;2023-06-10T05:20:48;14.16;90.70
69776;DHT22;57049;51.450;-2.516;2023-06-10T05:23:14;14.28;90.41
69776;DHT22;57049;51.450;-2.516;2023-06-10T05:25:40;14.29;90.32
69776;DHT22;57049;51.450;-2.516;2023-06-10T05:28:06;14.26;90.29
69776;DHT22;57049;51.450;-2.516;2023-06-10T05:30:35;14.36;90.07
69776;DHT22;57049;51.450;-2.516;2023-06-10T05:33:00;14.43;89.92
69776;DHT22;57049;51.450;-2.516;2023-06-10T05:35:26;14.32;90.13
69776;DHT22;57049;51.450;-2.516;2023-06-10T05:37:51;14.39;90.07
69776;DHT22;57049;51.450;-2.516;2023-06-10T05:40:17;14.25;90.18
69776;DHT22;57049;51.450;-2.516;2023-06-10T05:42:42;14.25;90.33
69776;DHT22;57049;51.450;-2.516;2023-06-10T05:45:08;14.01;90.28
69776;DHT22;57049;51.450;-2.516;2023-06-10T05:47:34;14.01;90.55
69776;DHT22;57049;51.450;-2.516;2023-06-10T05:50:00;14.16;90.33
69776;DHT22;57049;51.450;-2.516;2023-06-10T05:52:25;14.19;90.30
69776;DHT22;57049;51.450;-2.516;2023-06-10T05:54:51;14.49;89.62
69776;DHT22;57049;51.450;-2.516;2023-06-10T05:57:16;14.60;89.18
69776;DHT22;57049;51.450;-2.516;2023-06-10T05:59:42;14.66;88.94
69776;DHT22;57049;51.450;-2.516;2023-06-10T06:02:07;14.74;88.63
69776;DHT22;57049;51.450;-2.516;2023-06-10T06:04:34;14.84;88.45
69776;DHT22;57049;51.450;-2.516;2023-06-10T06:06:59;14.85;88.40
69776;DHT22;57049;51.450;-2.516;2023-06-10T06:09:25;14.76;88.11
69776;DHT22;57049;51.450;-2.516;2023-06-10T06:11:51;14.79;87.92
69776;DHT22;57049;51.450;-2.516;2023-06-10T06:14:16;14.74;88.12
69776;DHT22;57049;51.450;-2.516;2023-06-10T06:16:42;14.72;88.58
69776;DHT22;57049;51.450;-2.516;2023-06-10T06:19:10;14.69;88.76
69776;DHT22;57049;51.450;-2.516;2023-06-10T06:21:36;14.70;88.48
69776;DHT22;57049;51.450;-2.516;2023-06-10T06:24:02;14.80;88.28
69776;DHT22;57049;51.450;-2.516;2023-06-10T06:26:27;14.91;87.96
69776;DHT22;57049;51.450;-2.516;2023-06-10T06:28:53;15.04;87.66
69776;DHT22;57049;51.450;-2.516;2023-06-10T06:31:18;14.98;87.55
69776;DHT22;57049;51.450;-2.516;2023-06-10T06:33:49;15.04;87.53
69776;DHT22;57049;51.450;-2.516;2023-06-10T06:36:15;15.25;87.14
69776;DHT22;57049;51.450;-2.516;2023-06-10T06:38:40;15.23;86.83
69776;DHT22;57049;51.450;-2.516;2023-06-10T06:41:06;15.17;87.04
69776;DHT22;57049;51.450;-2.516;2023-06-10T06:43:32;15.12;87.06
69776;DHT22;57049;51.450;-2.516;2023-06-10T06:46:01;15.31;86.95
69776;DHT22;57049;51.450;-2.516;2023-06-10T06:48:26;15.55;86.25
69776;DHT22;57049;51.450;-2.516;2023-06-10T06:50:52;15.51;85.99
69776;DHT22;57049;51.450;-2.516;2023-06-10T06:53:19;15.56;85.93
69776;DHT22;57049;51.450;-2.516;2023-06-10T06:55:44;15.36;86.52
69776;DHT22;57049;51.450;-2.516;2023-06-10T06:58:10;15.70;85.60
69776;DHT22;57049;51.450;-2.516;2023-06-10T07:00:35;16.18;84.24
69776;DHT22;57049;51.450;-2.516;2023-06-10T07:03:01;16.17;83.42
69776;DHT22;57049;51.450;-2.516;2023-06-10T07:05:26;16.21;83.57
69776;DHT22;57049;51.450;-2.516;2023-06-10T07:07:53;16.24;83.41
69776;DHT22;57049;51.450;-2.516;2023-06-10T07:10:24;16.13;83.97
69776;DHT22;57049;51.450;-2.516;2023-06-10T07:12:50;15.95;84.34
69776;DHT22;57049;51.450;-2.516;2023-06-10T07:15:16;16.09;84.23
69776;DHT22;57049;51.450;-2.516;2023-06-10T07:17:42;17.54;80.52
69776;DHT22;57049;51.450;-2.516;2023-06-10T07:20:08;18.25;76.70
69776;DHT22;57049;51.450;-2.516;2023-06-10T07:22:33;18.91;74.27
69776;DHT22;57049;51.450;-2.516;2023-06-10T07:24:59;18.66;74.48
69776;DHT22;57049;51.450;-2.516;2023-06-10T07:27:24;17.76;77.00
69776;DHT22;57049;51.450;-2.516;2023-06-10T07:29:50;17.52;78.70
69776;DHT22;57049;51.450;-2.516;2023-06-10T07:32:16;17.87;77.58
69776;DHT22;57049;51.450;-2.516;2023-06-10T07:34:41;18.01;76.24
69776;DHT22;57049;51.450;-2.516;2023-06-10T07:37:07;17.98;76.96
69776;DHT22;57049;51.450;-2.516;2023-06-10T07:39:32;18.31;75.65
69776;DHT22;57049;51.450;-2.516;2023-06-10T07:41:58;19.02;73.60
69776;DHT22;57049;51.450;-2.516;2023-06-10T07:44:23;19.17;73.76
69776;DHT22;57049;51.450;-2.516;2023-06-10T07:46:49;19.20;73.10
69776;DHT22;57049;51.450;-2.516;2023-06-10T07:49:14;19.06;73.73
69776;DHT22;57049;51.450;-2.516;2023-06-10T07:51:40;19.30;73.27
69776;DHT22;57049;51.450;-2.516;2023-06-10T07:54:05;19.74;71.97
69776;DHT22;57049;51.450;-2.516;2023-06-10T07:56:31;19.79;71.25
69776;DHT22;57049;51.450;-2.516;2023-06-10T07:58:57;19.95;70.28
69776;DHT22;57049;51.450;-2.516;2023-06-10T08:01:23;20.25;71.49
69776;DHT22;57049;51.450;-2.516;2023-06-10T08:03:48;20.84;69.00
69776;DHT22;57049;51.450;-2.516;2023-06-10T08:06:14;20.56;69.21
69776;DHT22;57049;51.450;-2.516;2023-06-10T08:08:39;20.26;69.00
69776;DHT22;57049;51.450;-2.516;2023-06-10T08:11:08;19.47;71.46
69776;DHT22;57049;51.450;-2.516;2023-06-10T08:13:33;19.41;72.82
69776;DHT22;57049;51.450;-2.516;2023-06-10T08:15:59;20.15;71.27
69776;DHT22;57049;51.450;-2.516;2023-06-10T08:18:24;20.59;69.74
69776;DHT22;57049;51.450;-2.516;2023-06-10T08:20:50;20.53;69.45
69776;DHT22;57049;51.450;-2.516;2023-06-10T08:23:15;19.75;71.24
69776;DHT22;57049;51.450;-2.516;2023-06-10T08:25:41;19.88;71.49
69776;DHT22;57049;51.450;-2.516;2023-06-10T08:28:06;19.84;70.83
69776;DHT22;57049;51.450;-2.516;2023-06-10T08:30:32;19.75;71.49
69776;DHT22;57049;51.450;-2.516;2023-06-10T08:32:57;19.95;71.71
69776;DHT22;57049;51.450;-2.516;2023-06-10T08:35:22;19.97;71.19
69776;DHT22;57049;51.450;-2.516;2023-06-10T08:37:48;20.40;70.13
69776;DHT22;57049;51.450;-2.516;2023-06-10T08:40:13;21.01;68.66
69776;DHT22;57049;51.450;-2.516;2023-06-10T08:42:43;21.63;66.71
69776;DHT22;57049;51.450;-2.516;2023-06-10T08:45:16;21.28;67.67
69776;DHT22;57049;51.450;-2.516;2023-06-10T08:47:44;22.13;65.26
69776;DHT22;57049;51.450;-2.516;2023-06-10T08:50:11;21.99;64.66
69776;DHT22;57049;51.450;-2.516;2023-06-10T08:52:37;21.89;64.84
69776;DHT22;57049;51.450;-2.516;2023-06-10T08:55:05;21.88;65.42
69776;DHT22;57049;51.450;-2.516;2023-06-10T08:57:33;22.16;65.00
69776;DHT22;57049;51.450;-2.516;2023-06-10T09:00:01;22.36;64.83
69776;DHT22;57049;51.450;-2.516;2023-06-10T09:02:27;21.86;65.41
69776;DHT22;57049;51.450;-2.516;2023-06-10T09:04:53;22.78;64.47
69776;DHT22;57049;51.450;-2.516;2023-06-10T09:07:21;22.93;62.65
69776;DHT22;57049;51.450;-2.516;2023-06-10T09:09:49;23.25;62.19
69776;DHT22;57049;51.450;-2.516;2023-06-10T09:12:15;23.62;61.68
69776;DHT22;57049;51.450;-2.516;2023-06-10T09:14:41;23.38;61.60
69776;DHT22;57049;51.450;-2.516;2023-06-10T09:17:07;23.58;61.06
69776;DHT22;57049;51.450;-2.516;2023-06-10T09:19:32;23.18;62.43
69776;DHT22;57049;51.450;-2.516;2023-06-10T09:21:58;23.18;61.55
69776;DHT22;57049;51.450;-2.516;2023-06-10T09:24:24;22.63;63.69
69776;DHT22;57049;51.450;-2.516;2023-06-10T09:26:50;23.79;61.62
69776;DHT22;57049;51.450;-2.516;2023-06-10T09:29:26;23.22;61.83
69776;DHT22;57049;51.450;-2.516;2023-06-10T09:31:52;23.08;62.59
69776;DHT22;57049;51.450;-2.516;2023-06-10T09:34:17;22.83;63.97
69776;DHT22;57049;51.450;-2.516;2023-06-10T09:36:43;22.86;64.12
69776;DHT22;57049;51.450;-2.516;2023-06-10T09:39:16;23.10;63.49
69776;DHT22;57049;51.450;-2.516;2023-06-10T09:41:43;23.52;62.25
69776;DHT22;57049;51.450;-2.516;2023-06-10T09:44:19;24.33;60.44
69776;DHT22;57049;51.450;-2.516;2023-06-10T09:46:46;24.82;58.31
69776;DHT22;57049;51.450;-2.516;2023-06-10T09:49:12;24.75;59.04
69776;DHT22;57049;51.450;-2.516;2023-06-10T09:51:49;25.58;56.69
69776;DHT22;57049;51.450;-2.516;2023-06-10T09:54:15;25.54;56.65
69776;DHT22;57049;51.450;-2.516;2023-06-10T09:56:40;25.40;57.19
69776;DHT22;57049;51.450;-2.516;2023-06-10T09:59:08;26.31;56.02
69776;DHT22;57049;51.450;-2.516;2023-06-10T10:01:34;26.71;55.32
69776;DHT22;57049;51.450;-2.516;2023-06-10T10:04:00;26.31;55.01
69776;DHT22;57049;51.450;-2.516;2023-06-10T10:06:27;25.20;57.90
69776;DHT22;57049;51.450;-2.516;2023-06-10T10:08:52;26.11;56.92
69776;DHT22;57049;51.450;-2.516;2023-06-10T10:11:20;25.71;57.21
69776;DHT22;57049;51.450;-2.516;2023-06-10T10:13:50;25.81;57.73
69776;DHT22;57049;51.450;-2.516;2023-06-10T10:16:40;25.26;58.43
69776;DHT22;57049;51.450;-2.516;2023-06-10T10:19:12;24.61;60.31
69776;DHT22;57049;51.450;-2.516;2023-06-10T10:21:43;24.71;59.68
69776;DHT22;57049;51.450;-2.516;2023-06-10T10:24:16;24.57;59.79
69776;DHT22;57049;51.450;-2.516;2023-06-10T10:26:43;24.53;60.04
69776;DHT22;57049;51.450;-2.516;2023-06-10T10:31:41;24.53;60.29
69776;DHT22;57049;51.450;-2.516;2023-06-10T10:34:09;24.78;60.52
69776;DHT22;57049;51.450;-2.516;2023-06-10T10:36:38;24.65;60.44
69776;DHT22;57049;51.450;-2.516;2023-06-10T10:39:04;25.11;59.76
69776;DHT22;57049;51.450;-2.516;2023-06-10T10:41:31;25.18;59.49
69776;DHT22;57049;51.450;-2.516;2023-06-10T10:43:58;24.64;61.11
69776;DHT22;57049;51.450;-2.516;2023-06-10T10:46:24;24.64;60.77
69776;DHT22;57049;51.450;-2.516;2023-06-10T10:48:53;24.91;59.92
69776;DHT22;57049;51.450;-2.516;2023-06-10T10:51:20;24.68;60.74
69776;DHT22;57049;51.450;-2.516;2023-06-10T10:54:14;25.11;59.27
69776;DHT22;57049;51.450;-2.516;2023-06-10T10:56:45;25.45;59.18
69776;DHT22;57049;51.450;-2.516;2023-06-10T10:59:25;25.66;58.20
69776;DHT22;57049;51.450;-2.516;2023-06-10T11:02:07;25.87;57.19
69776;DHT22;57049;51.450;-2.516;2023-06-10T11:04:33;26.34;57.65
69776;DHT22;57049;51.450;-2.516;2023-06-10T11:07:05;26.71;55.54
69776;DHT22;57049;51.450;-2.516;2023-06-10T11:09:31;26.99;55.02
69776;DHT22;57049;51.450;-2.516;2023-06-10T11:11:57;26.53;56.06
69776;DHT22;57049;51.450;-2.516;2023-06-10T11:14:30;26.04;56.54
69776;DHT22;57049;51.450;-2.516;2023-06-10T11:16:59;26.69;55.44
69776;DHT22;57049;51.450;-2.516;2023-06-10T11:19:35;27.12;55.26
69776;DHT22;57049;51.450;-2.516;2023-06-10T11:22:02;27.02;54.76
69776;DHT22;57049;51.450;-2.516;2023-06-10T11:24:31;26.86;55.12
69776;DHT22;57049;51.450;-2.516;2023-06-10T11:27:16;25.84;56.50
69776;DHT22;57049;51.450;-2.516;2023-06-10T11:29:58;26.01;57.75
69776;DHT22;57049;51.450;-2.516;2023-06-10T11:32:43;26.56;56.71
69776;DHT22;57049;51.450;-2.516;2023-06-10T11:35:08;27.00;55.16
69776;DHT22;57049;51.450;-2.516;2023-06-10T11:37:34;26.55;56.04
69776;DHT22;57049;51.450;-2.516;2023-06-10T11:40:00;26.99;55.82
69776;DHT22;57049;51.450;-2.516;2023-06-10T11:42:26;26.16;56.77
69776;DHT22;57049;51.450;-2.516;2023-06-10T11:44:53;25.80;57.46
69776;DHT22;57049;51.450;-2.516;2023-06-10T11:47:20;25.86;58.98
69776;DHT22;57049;51.450;-2.516;2023-06-10T11:49:46;26.40;56.24
69776;DHT22;57049;51.450;-2.516;2023-06-10T11:52:26;26.21;57.02
69776;DHT22;57049;51.450;-2.516;2023-06-10T11:54:55;26.37;56.75
69776;DHT22;57049;51.450;-2.516;2023-06-10T11:57:21;26.22;56.45
69776;DHT22;57049;51.450;-2.516;2023-06-10T11:59:46;26.53;56.37
69776;DHT22;57049;51.450;-2.516;2023-06-10T12:02:16;27.26;55.72
69776;DHT22;57049;51.450;-2.516;2023-06-10T12:04:41;26.47;56.41
69776;DHT22;57049;51.450;-2.516;2023-06-10T12:07:07;26.38;57.45
69776;DHT22;57049;51.450;-2.516;2023-06-10T12:09:32;26.93;55.74
69776;DHT22;57049;51.450;-2.516;2023-06-10T12:12:01;27.23;55.46
69776;DHT22;57049;51.450;-2.516;2023-06-10T12:15:09;26.58;56.33
69776;DHT22;57049;51.450;-2.516;2023-06-10T12:20:05;26.49;57.26
69776;DHT22;57049;51.450;-2.516;2023-06-10T12:22:42;27.20;56.68
69776;DHT22;57049;51.450;-2.516;2023-06-10T12:25:09;27.44;55.33
69776;DHT22;57049;51.450;-2.516;2023-06-10T12:27:35;27.95;55.62
69776;DHT22;57049;51.450;-2.516;2023-06-10T12:30:03;28.21;53.51
69776;DHT22;57049;51.450;-2.516;2023-06-10T12:32:41;28.15;54.55
69776;DHT22;57049;51.450;-2.516;2023-06-10T12:35:08;28.48;53.34
69776;DHT22;57049;51.450;-2.516;2023-06-10T12:37:34;28.45;53.25
69776;DHT22;57049;51.450;-2.516;2023-06-10T12:40:01;28.63;53.15
69776;DHT22;57049;51.450;-2.516;2023-06-10T12:42:29;28.73;52.67
69776;DHT22;57049;51.450;-2.516;2023-06-10T12:44:55;28.53;52.87
69776;DHT22;57049;51.450;-2.516;2023-06-10T12:47:33;28.66;53.31
69776;DHT22;57049;51.450;-2.516;2023-06-10T12:50:03;28.77;53.33
69776;DHT22;57049;51.450;-2.516;2023-06-10T12:52:29;28.67;52.73
69776;DHT22;57049;51.450;-2.516;2023-06-10T12:54:55;28.49;53.25
69776;DHT22;57049;51.450;-2.516;2023-06-10T12:57:21;28.59;53.17
69776;DHT22;57049;51.450;-2.516;2023-06-10T12:59:47;28.80;53.03
69776;DHT22;57049;51.450;-2.516;2023-06-10T13:02:20;29.16;51.98
69776;DHT22;57049;51.450;-2.516;2023-06-10T13:04:46;29.35;51.17
69776;DHT22;57049;51.450;-2.516;2023-06-10T13:07:12;29.38;51.66
69776;DHT22;57049;51.450;-2.516;2023-06-10T13:09:38;29.67;50.76
69776;DHT22;57049;51.450;-2.516;2023-06-10T13:12:05;29.89;50.18
69776;DHT22;57049;51.450;-2.516;2023-06-10T13:14:30;30.05;49.72
69776;DHT22;57049;51.450;-2.516;2023-06-10T13:16:56;28.86;51.30
69776;DHT22;57049;51.450;-2.516;2023-06-10T13:19:21;28.75;52.09
69776;DHT22;57049;51.450;-2.516;2023-06-10T13:21:48;28.99;51.68
69776;DHT22;57049;51.450;-2.516;2023-06-10T13:24:13;29.08;51.89
69776;DHT22;57049;51.450;-2.516;2023-06-10T13:26:39;29.18;51.60
69776;DHT22;57049;51.450;-2.516;2023-06-10T13:29:04;29.04;51.49
69776;DHT22;57049;51.450;-2.516;2023-06-10T13:31:30;29.00;50.96
69776;DHT22;57049;51.450;-2.516;2023-06-10T13:33:56;28.76;51.81
69776;DHT22;57049;51.450;-2.516;2023-06-10T13:36:22;28.28;52.57
69776;DHT22;57049;51.450;-2.516;2023-06-10T13:38:48;28.32;53.29
69776;DHT22;57049;51.450;-2.516;2023-06-10T13:41:13;28.21;53.27
69776;DHT22;57049;51.450;-2.516;2023-06-10T13:43:39;28.31;54.29
69776;DHT22;57049;51.450;-2.516;2023-06-10T13:46:04;28.15;52.12
69776;DHT22;57049;51.450;-2.516;2023-06-10T13:48:30;28.35;54.08
69776;DHT22;57049;51.450;-2.516;2023-06-10T13:50:56;28.41;53.63
69776;DHT22;57049;51.450;-2.516;2023-06-10T13:53:22;28.89;52.56
69776;DHT22;57049;51.450;-2.516;2023-06-10T13:55:47;29.11;52.20
69776;DHT22;57049;51.450;-2.516;2023-06-10T13:58:13;28.95;51.26
69776;DHT22;57049;51.450;-2.516;2023-06-10T14:00:38;29.14;51.69
69776;DHT22;57049;51.450;-2.516;2023-06-10T14:03:04;29.31;52.28
69776;DHT22;57049;51.450;-2.516;2023-06-10T14:05:30;29.41;52.44
69776;DHT22;57049;51.450;-2.516;2023-06-10T14:07:55;29.55;51.81
69776;DHT22;57049;51.450;-2.516;2023-06-10T14:10:21;29.44;51.63
69776;DHT22;57049;51.450;-2.516;2023-06-10T14:12:46;29.39;51.71
69776;DHT22;57049;51.450;-2.516;2023-06-10T14:15:12;29.18;52.38
69776;DHT22;57049;51.450;-2.516;2023-06-10T14:17:37;29.11;52.65
69776;DHT22;57049;51.450;-2.516;2023-06-10T14:20:03;28.86;53.06
69776;DHT22;57049;51.450;-2.516;2023-06-10T14:22:29;28.79;53.60
69776;DHT22;57049;51.450;-2.516;2023-06-10T14:24:55;28.48;53.88
69776;DHT22;57049;51.450;-2.516;2023-06-10T14:27:20;28.44;54.24
69776;DHT22;57049;51.450;-2.516;2023-06-10T14:29:46;28.14;54.33
69776;DHT22;57049;51.450;-2.516;2023-06-10T14:32:11;28.04;54.10
69776;DHT22;57049;51.450;-2.516;2023-06-10T14:34:37;27.87;55.61
69776;DHT22;57049;51.450;-2.516;2023-06-10T14:37:04;27.90;55.45
69776;DHT22;57049;51.450;-2.516;2023-06-10T14:39:32;27.88;54.75
69776;DHT22;57049;51.450;-2.516;2023-06-10T14:41:58;27.51;56.70
69776;DHT22;57049;51.450;-2.516;2023-06-10T14:44:23;27.58;56.77
69776;DHT22;57049;51.450;-2.516;2023-06-10T14:46:49;27.60;56.19
69776;DHT22;57049;51.450;-2.516;2023-06-10T14:49:14;27.61;56.39
69776;DHT22;57049;51.450;-2.516;2023-06-10T14:51:39;27.47;55.99
69776;DHT22;57049;51.450;-2.516;2023-06-10T14:54:05;27.63;56.80
69776;DHT22;57049;51.450;-2.516;2023-06-10T14:56:30;27.67;56.31
69776;DHT22;57049;51.450;-2.516;2023-06-10T14:58:56;27.78;56.20
69776;DHT22;57049;51.450;-2.516;2023-06-10T15:01:21;27.40;57.10
69776;DHT22;57049;51.450;-2.516;2023-06-10T15:03:47;27.29;56.94
69776;DHT22;57049;51.450;-2.516;2023-06-10T15:06:13;27.19;57.27
69776;DHT22;57049;51.450;-2.516;2023-06-10T15:08:38;27.09;56.93
69776;DHT22;57049;51.450;-2.516;2023-06-10T15:11:03;27.12;57.49
69776;DHT22;57049;51.450;-2.516;2023-06-10T15:13:29;27.19;57.40
69776;DHT22;57049;51.450;-2.516;2023-06-10T15:15:54;26.88;58.10
69776;DHT22;57049;51.450;-2.516;2023-06-10T15:18:21;27.06;57.55
69776;DHT22;57049;51.450;-2.516;2023-06-10T15:20:46;26.91;58.08
69776;DHT22;57049;51.450;-2.516;2023-06-10T15:23:12;26.73;58.19
69776;DHT22;57049;51.450;-2.516;2023-06-10T15:25:37;26.76;57.91